createdAt,value
2019-05-10T00:00:41.520Z,7.50
2019-05-10T00:01:41.513Z,7.40
2019-05-10T00:02:41.511Z,7.20
2019-05-10T00:03:41.514Z,6.50
2019-05-10T00:04:41.506Z,7.70
2019-05-10T00:05:41.501Z,7.40
2019-05-10T00:06:41.517Z,6.80
2019-05-10T00:07:41.494Z,7.90
2019-05-10T00:08:41.492Z,7.30
2019-05-10T00:09:41.489Z,7.00
2019-05-10T00:10:41.483Z,7.20
2019-05-10T00:11:41.500Z,7.30
2019-05-10T00:12:41.480Z,7.10
2019-05-10T00:13:41.482Z,7.40
2019-05-10T00:14:41.472Z,7.60
2019-05-10T00:15:41.468Z,6.30
2019-05-10T00:16:41.466Z,7.60
2019-05-10T00:17:41.460Z,6.90
2019-05-10T00:18:41.459Z,6.40
2019-05-10T00:19:41.455Z,6.80
2019-05-10T00:20:41.453Z,6.40
2019-05-10T00:21:41.448Z,7.20
2019-05-10T00:22:41.445Z,6.90
2019-05-10T00:23:41.442Z,6.90
2019-05-10T00:24:41.438Z,7.10
2019-05-10T00:25:41.435Z,6.40
2019-05-10T00:26:41.431Z,6.20
2019-05-10T00:27:41.429Z,5.70
2019-05-10T00:28:41.426Z,6.50
2019-05-10T00:29:41.420Z,5.60
2019-05-10T00:30:41.419Z,6.20
2019-05-10T00:31:41.426Z,6.10
2019-05-10T00:32:41.412Z,6.60
2019-05-10T00:33:41.407Z,5.80
2019-05-10T00:34:41.405Z,5.80
2019-05-10T00:35:41.401Z,5.90
2019-05-10T00:36:41.397Z,5.90
2019-05-10T00:37:41.396Z,5.90
2019-05-10T00:38:41.391Z,5.40
2019-05-10T00:39:41.386Z,5.90
2019-05-10T00:40:41.419Z,6.20
2019-05-10T00:41:41.395Z,6.30
2019-05-10T00:42:41.378Z,5.70
2019-05-10T00:43:41.373Z,5.50
2019-05-10T00:44:41.369Z,5.20
2019-05-10T00:45:41.368Z,6.00
2019-05-10T00:46:41.457Z,5.50
2019-05-10T00:47:41.366Z,5.40
2019-05-10T00:48:41.355Z,4.70
2019-05-10T00:49:41.354Z,4.50
2019-05-10T00:50:41.345Z,5.10
2019-05-10T00:51:41.348Z,5.80
2019-05-10T00:52:41.343Z,4.80
2019-05-10T00:53:41.335Z,5.90
2019-05-10T00:54:41.337Z,5.40
2019-05-10T00:55:41.328Z,4.80
2019-05-10T00:56:41.325Z,4.80
2019-05-10T00:57:41.320Z,4.70
2019-05-10T00:58:41.320Z,4.90
2019-05-10T00:59:41.313Z,4.80
2019-05-10T01:00:41.310Z,4.90
2019-05-10T01:01:41.312Z,5.70
2019-05-10T01:02:41.304Z,5.10
2019-05-10T01:03:41.299Z,4.90
2019-05-10T01:04:41.294Z,5.00
2019-05-10T01:05:41.289Z,5.60
2019-05-10T01:06:41.286Z,5.40
2019-05-10T01:07:41.283Z,4.40
2019-05-10T01:08:41.280Z,4.30
2019-05-10T01:09:41.274Z,4.90
2019-05-10T01:10:41.271Z,4.90
2019-05-10T01:11:41.269Z,4.70
2019-05-10T01:12:41.265Z,4.80
2019-05-10T01:13:41.260Z,4.60
2019-05-10T01:14:41.254Z,3.40
2019-05-10T01:15:41.252Z,3.20
2019-05-10T01:16:41.249Z,3.10
2019-05-10T01:17:41.243Z,3.80
2019-05-10T01:18:41.239Z,3.60
2019-05-10T01:19:41.236Z,2.70
2019-05-10T01:20:41.231Z,3.20
2019-05-10T01:21:41.226Z,3.30
2019-05-10T01:22:41.223Z,3.40
2019-05-10T01:23:41.219Z,3.20
2019-05-10T01:24:41.214Z,3.20
2019-05-10T01:25:41.214Z,3.80
2019-05-10T01:26:41.209Z,3.90
2019-05-10T01:27:41.205Z,3.50
2019-05-10T01:28:41.200Z,3.40
2019-05-10T01:29:41.193Z,3.20
2019-05-10T01:30:41.191Z,3.20
2019-05-10T01:31:41.187Z,3.80
2019-05-10T01:32:41.181Z,3.30
2019-05-10T01:33:41.181Z,3.40
2019-05-10T01:34:41.202Z,3.10
2019-05-10T01:35:41.168Z,2.90
2019-05-10T01:36:41.165Z,3.20
2019-05-10T01:37:41.159Z,3.80
2019-05-10T01:38:41.155Z,3.10
2019-05-10T01:39:41.159Z,3.80
2019-05-10T01:40:41.147Z,4.00
2019-05-10T01:41:41.142Z,3.40
2019-05-10T01:42:41.138Z,3.80
2019-05-10T01:43:41.148Z,4.10
2019-05-10T01:44:41.130Z,4.30
2019-05-10T01:45:41.125Z,3.30
2019-05-10T01:46:41.122Z,4.00
2019-05-10T01:47:41.117Z,3.60
2019-05-10T01:48:41.115Z,4.00
2019-05-10T01:49:41.109Z,3.40
2019-05-10T01:50:41.105Z,3.40
2019-05-10T01:51:41.099Z,3.50
2019-05-10T01:52:41.096Z,3.80
2019-05-10T01:53:41.091Z,3.30
2019-05-10T01:54:41.089Z,4.00
2019-05-10T01:55:51.391Z,4.00
2019-05-10T01:56:41.081Z,3.10
2019-05-10T01:57:41.074Z,3.10
2019-05-10T01:58:41.072Z,3.60
2019-05-10T01:59:41.067Z,3.40
2019-05-10T02:00:41.086Z,3.60
2019-05-10T02:01:41.067Z,3.70
2019-05-10T02:02:41.058Z,3.70
2019-05-10T02:03:41.050Z,3.80
2019-05-10T02:04:41.046Z,4.10
2019-05-10T02:05:41.045Z,3.50
2019-05-10T02:06:41.042Z,3.90
2019-05-10T02:07:41.033Z,4.30
2019-05-10T02:08:41.044Z,3.60
2019-05-10T02:09:41.027Z,3.80
2019-05-10T02:10:41.026Z,3.70
2019-05-10T02:11:41.017Z,3.80
2019-05-10T02:12:41.014Z,3.70
2019-05-10T02:13:41.009Z,5.00
2019-05-10T02:14:41.006Z,4.00
2019-05-10T02:15:41.003Z,4.40
2019-05-10T02:16:40.999Z,4.60
2019-05-10T02:17:40.994Z,3.90
2019-05-10T02:18:40.988Z,4.40
2019-05-10T02:19:40.986Z,4.80
2019-05-10T02:20:40.982Z,4.20
2019-05-10T02:21:40.976Z,4.60
2019-05-10T02:22:40.971Z,4.60
2019-05-10T02:23:40.968Z,4.70
2019-05-10T02:24:40.966Z,5.30
2019-05-10T02:25:40.959Z,5.10
2019-05-10T02:26:40.956Z,4.60
2019-05-10T02:27:40.951Z,4.40
2019-05-10T02:28:40.950Z,4.40
2019-05-10T02:29:40.943Z,4.70
2019-05-10T02:30:40.940Z,4.90
2019-05-10T02:31:40.943Z,5.70
2019-05-10T02:32:40.935Z,5.40
2019-05-10T02:33:40.928Z,5.00
2019-05-10T02:34:40.924Z,5.60
2019-05-10T02:35:40.921Z,5.20
2019-05-10T02:36:40.915Z,5.00
2019-05-10T02:37:40.910Z,5.00
2019-05-10T02:38:40.912Z,4.90
2019-05-10T02:39:40.906Z,5.10
2019-05-10T02:40:40.898Z,4.90
2019-05-10T02:41:40.892Z,5.50
2019-05-10T02:42:40.896Z,5.90
2019-05-10T02:43:40.885Z,5.70
2019-05-10T02:44:40.883Z,6.20
2019-05-10T02:45:40.878Z,5.60
2019-05-10T02:46:40.873Z,5.00
2019-05-10T02:47:40.868Z,5.20
2019-05-10T02:48:40.865Z,5.70
2019-05-10T02:49:40.859Z,6.10
2019-05-10T02:50:40.856Z,6.40
2019-05-10T02:51:40.856Z,6.20
2019-05-10T02:52:40.848Z,6.20
2019-05-10T02:53:40.846Z,6.00
2019-05-10T02:54:40.915Z,5.60
2019-05-10T02:55:40.836Z,6.10
2019-05-10T02:56:40.832Z,6.00
2019-05-10T02:57:40.829Z,5.80
2019-05-10T02:58:40.824Z,5.30
2019-05-10T02:59:40.823Z,5.40
2019-05-10T03:00:40.816Z,5.60
2019-05-10T03:01:40.811Z,6.50
2019-05-10T03:02:40.807Z,6.10
2019-05-10T03:03:40.803Z,5.80
2019-05-10T03:04:40.801Z,5.50
2019-05-10T03:05:40.795Z,6.70
2019-05-10T03:06:40.790Z,6.50
2019-05-10T03:07:40.788Z,6.00
2019-05-10T03:08:40.784Z,6.30
2019-05-10T03:09:40.782Z,5.90
2019-05-10T03:10:40.774Z,6.60
2019-05-10T03:11:40.772Z,6.60
2019-05-10T03:12:40.767Z,6.10
2019-05-10T03:13:40.763Z,6.30
2019-05-10T03:14:40.759Z,6.60
2019-05-10T03:15:40.758Z,6.90
2019-05-10T03:16:40.753Z,6.30
2019-05-10T03:17:40.755Z,6.80
2019-05-10T03:18:40.741Z,6.80
2019-05-10T03:19:40.737Z,6.10
2019-05-10T03:20:40.734Z,5.90
2019-05-10T03:21:40.729Z,7.60
2019-05-10T03:22:40.725Z,6.80
2019-05-10T03:23:41.021Z,6.50
2019-05-10T03:24:40.717Z,6.70
2019-05-10T03:25:40.712Z,7.10
2019-05-10T03:26:50.487Z,7.00
2019-05-10T03:27:40.705Z,7.50
2019-05-10T03:28:40.727Z,6.40
2019-05-10T03:29:40.699Z,7.30
2019-05-10T03:30:40.701Z,7.20
2019-05-10T03:31:40.695Z,6.40
2019-05-10T03:32:40.686Z,7.00
2019-05-10T03:33:40.680Z,6.50
2019-05-10T03:34:40.676Z,7.40
2019-05-10T03:35:40.672Z,6.90
2019-05-10T03:36:40.668Z,6.90
2019-05-10T03:37:40.664Z,6.40
2019-05-10T03:38:40.667Z,6.40
2019-05-10T03:39:40.657Z,6.70
2019-05-10T03:40:40.652Z,6.70
2019-05-10T03:41:40.647Z,6.10
2019-05-10T03:42:40.644Z,6.40
2019-05-10T03:43:40.638Z,6.70
2019-05-10T03:44:40.639Z,6.70
2019-05-10T03:45:40.719Z,5.80
2019-05-10T03:46:40.628Z,6.00
2019-05-10T03:47:40.622Z,6.10
2019-05-10T03:48:40.622Z,6.20
2019-05-10T03:49:40.615Z,6.50
2019-05-10T03:50:40.612Z,6.30
2019-05-10T03:51:40.635Z,5.90
2019-05-10T03:52:40.603Z,6.20
2019-05-10T03:53:40.600Z,6.30
2019-05-10T03:54:40.595Z,5.60
2019-05-10T03:55:40.589Z,6.30
2019-05-10T03:56:40.586Z,6.20
2019-05-10T03:57:40.583Z,6.10
2019-05-10T03:58:40.578Z,6.20
2019-05-10T03:59:40.574Z,6.10
2019-05-10T04:00:40.572Z,5.60
2019-05-10T04:01:40.567Z,5.60
2019-05-10T04:02:40.563Z,5.70
2019-05-10T04:03:40.555Z,5.60
2019-05-10T04:04:40.555Z,5.30
2019-05-10T04:05:40.548Z,5.90
2019-05-10T04:06:40.553Z,5.40
2019-05-10T04:07:40.540Z,5.20
2019-05-10T04:08:40.541Z,5.00
2019-05-10T04:09:40.531Z,5.00
2019-05-10T04:10:40.530Z,5.20
2019-05-10T04:11:40.525Z,4.90
2019-05-10T04:12:40.524Z,5.20
2019-05-10T04:13:40.516Z,5.30
2019-05-10T04:14:40.514Z,5.30
2019-05-10T04:15:40.508Z,5.20
2019-05-10T04:16:40.504Z,5.60
2019-05-10T04:17:40.518Z,5.30
2019-05-10T04:18:40.504Z,5.60
2019-05-10T04:19:40.491Z,5.10
2019-05-10T04:20:40.489Z,5.50
2019-05-10T04:21:40.491Z,5.50
2019-05-10T04:22:40.484Z,5.00
2019-05-10T04:23:40.494Z,5.40
2019-05-10T04:24:40.470Z,5.40
2019-05-10T04:25:40.466Z,5.70
2019-05-10T04:26:40.461Z,5.60
2019-05-10T04:27:40.460Z,5.90
2019-05-10T04:28:40.469Z,5.40
2019-05-10T04:29:40.450Z,5.20
2019-05-10T04:30:40.451Z,6.20
2019-05-10T04:31:40.443Z,5.90
2019-05-10T04:32:40.440Z,5.70
2019-05-10T04:33:40.432Z,6.20
2019-05-10T04:34:40.438Z,6.30
2019-05-10T04:35:40.425Z,6.60
2019-05-10T04:36:40.421Z,5.70
2019-05-10T04:37:40.417Z,6.60
2019-05-10T04:38:40.417Z,6.70
2019-05-10T04:39:40.411Z,7.20
2019-05-10T04:40:40.404Z,6.20
2019-05-10T04:41:40.409Z,7.00
2019-05-10T04:42:40.402Z,7.00
2019-05-10T04:43:40.392Z,7.30
2019-05-10T04:44:40.390Z,7.10
2019-05-10T04:45:40.383Z,6.40
2019-05-10T04:46:40.380Z,7.00
2019-05-10T04:47:40.375Z,6.20
2019-05-10T04:48:40.370Z,6.30
2019-05-10T04:49:40.365Z,7.70
2019-05-10T04:50:40.363Z,7.20
2019-05-10T04:51:40.361Z,7.70
2019-05-10T04:52:40.354Z,7.40
2019-05-10T04:53:40.354Z,7.60
2019-05-10T04:54:40.345Z,7.40
2019-05-10T04:55:40.341Z,7.10
2019-05-10T04:56:40.337Z,7.10
2019-05-10T04:57:50.020Z,7.40
2019-05-10T04:58:40.327Z,7.10
2019-05-10T04:59:40.323Z,8.10
2019-05-10T05:00:40.322Z,8.00
2019-05-10T05:01:40.315Z,6.80
2019-05-10T05:02:40.312Z,7.30
2019-05-10T05:03:40.306Z,7.30
2019-05-10T05:04:40.303Z,7.80
2019-05-10T05:05:40.297Z,8.50
2019-05-10T05:06:40.297Z,7.40
2019-05-10T05:07:40.289Z,8.30
2019-05-10T05:08:40.288Z,7.90
2019-05-10T05:09:40.280Z,7.30
2019-05-10T05:10:40.276Z,8.10
2019-05-10T05:11:40.274Z,8.50
2019-05-10T05:12:40.273Z,7.90
2019-05-10T05:13:40.262Z,7.40
2019-05-10T05:14:40.260Z,8.10
2019-05-10T05:15:40.262Z,8.10
2019-05-10T05:16:40.253Z,7.70
2019-05-10T05:17:40.246Z,8.10
2019-05-10T05:18:40.244Z,7.80
2019-05-10T05:19:40.928Z,8.20
2019-05-10T05:20:40.235Z,8.60
2019-05-10T05:21:40.229Z,8.30
2019-05-10T05:22:40.226Z,8.10
2019-05-10T05:23:40.227Z,7.90
2019-05-10T05:24:40.219Z,8.60
2019-05-10T05:25:41.665Z,8.30
2019-05-10T05:26:40.214Z,8.50
2019-05-10T05:27:40.205Z,8.20
2019-05-10T05:28:40.201Z,9.40
2019-05-10T05:29:40.197Z,8.60
2019-05-10T05:30:40.196Z,8.00
2019-05-10T05:31:40.189Z,8.60
2019-05-10T05:32:44.486Z,8.20
2019-05-10T05:33:40.180Z,8.50
2019-05-10T05:34:40.176Z,6.70
2019-05-10T05:35:40.180Z,7.60
2019-05-10T05:36:40.168Z,8.60
2019-05-10T05:37:40.163Z,7.00
2019-05-10T05:38:46.453Z,7.50
2019-05-10T05:39:40.156Z,6.90
2019-05-10T05:40:40.152Z,7.70
2019-05-10T05:41:48.945Z,7.50
2019-05-10T05:42:40.146Z,7.60
2019-05-10T05:43:45.667Z,7.10
2019-05-10T05:44:40.135Z,6.80
2019-05-10T05:45:40.130Z,7.80
2019-05-10T05:46:40.138Z,7.70
2019-05-10T05:47:42.293Z,6.70
2019-05-10T05:48:40.728Z,7.10
2019-05-10T05:49:40.115Z,7.20
2019-05-10T05:50:40.113Z,7.40
2019-05-10T05:51:40.106Z,6.90
2019-05-10T05:52:40.106Z,7.10
2019-05-10T05:53:42.210Z,6.20
2019-05-10T05:54:40.095Z,6.30
2019-05-10T05:55:40.088Z,6.00
2019-05-10T05:56:44.636Z,6.80
2019-05-10T05:57:40.087Z,6.60
2019-05-10T05:58:44.442Z,6.60
2019-05-10T05:59:40.073Z,6.70
2019-05-10T06:00:44.815Z,7.00
2019-05-10T06:01:40.064Z,6.10
2019-05-10T06:02:44.732Z,6.00
2019-05-10T06:03:40.058Z,5.40
2019-05-10T06:04:40.903Z,5.70
2019-05-10T06:05:40.048Z,5.30
2019-05-10T06:06:40.044Z,5.80
2019-05-10T06:07:40.042Z,5.20
2019-05-10T06:08:40.037Z,6.20
2019-05-10T06:09:40.032Z,5.10
2019-05-10T06:10:43.633Z,5.40
2019-05-10T06:11:40.026Z,5.30
2019-05-10T06:12:44.685Z,5.60
2019-05-10T06:13:40.018Z,4.80
2019-05-10T06:14:43.180Z,4.90
2019-05-10T06:15:40.009Z,4.80
2019-05-10T06:16:44.916Z,4.50
2019-05-10T06:17:40.004Z,4.20
2019-05-10T06:18:41.677Z,4.90
2019-05-10T06:19:39.995Z,4.60
2019-05-10T06:20:44.447Z,4.30
2019-05-10T06:21:39.986Z,3.70
2019-05-10T06:22:45.594Z,4.50
2019-05-10T06:23:39.978Z,4.30
2019-05-10T06:24:39.973Z,4.00
2019-05-10T06:25:42.417Z,4.40
2019-05-10T06:26:39.965Z,4.10
2019-05-10T06:27:40.924Z,4.10
2019-05-10T06:28:59.833Z,3.60
2019-05-10T06:29:42.914Z,3.80
2019-05-10T06:30:39.951Z,3.40
2019-05-10T06:31:39.948Z,4.00
2019-05-10T06:32:39.946Z,3.50
2019-05-10T06:33:44.843Z,3.40
2019-05-10T06:34:40.307Z,2.90
2019-05-10T06:35:39.931Z,3.70
2019-05-10T06:36:39.940Z,3.20
2019-05-10T06:37:39.922Z,3.20
2019-05-10T06:38:39.921Z,3.60
2019-05-10T06:39:39.917Z,3.00
2019-05-10T06:40:46.843Z,3.00
2019-05-10T06:41:39.909Z,3.20
2019-05-10T06:42:39.904Z,3.20
2019-05-10T06:43:39.902Z,2.90
2019-05-10T06:44:39.898Z,2.90
2019-05-10T06:45:39.892Z,3.10
2019-05-10T06:46:39.896Z,2.40
2019-05-10T06:47:41.982Z,3.00
2019-05-10T06:48:39.882Z,3.60
2019-05-10T06:49:41.032Z,3.20
2019-05-10T06:50:39.874Z,3.00
2019-05-10T06:51:42.925Z,2.50
2019-05-10T06:52:39.877Z,2.40
2019-05-10T06:53:41.599Z,3.00
2019-05-10T06:54:39.859Z,2.80
2019-05-10T06:55:39.856Z,2.50
2019-05-10T06:56:39.852Z,2.70
2019-05-10T06:57:39.848Z,2.50
2019-05-10T06:58:39.847Z,2.50
2019-05-10T06:59:39.842Z,2.50
2019-05-10T07:00:44.638Z,2.50
2019-05-10T07:01:45.928Z,3.10
2019-05-10T07:02:39.834Z,3.20
2019-05-10T07:03:39.828Z,2.70
2019-05-10T07:04:41.201Z,3.00
2019-05-10T07:05:39.822Z,2.70
2019-05-10T07:06:39.818Z,2.90
2019-05-10T07:07:44.793Z,2.40
2019-05-10T07:08:44.405Z,3.20
2019-05-10T07:10:01.650Z,3.60
2019-05-10T07:10:39.806Z,2.70
2019-05-10T07:11:39.808Z,2.40
2019-05-10T07:12:39.833Z,2.40
2019-05-10T07:13:40.374Z,2.20
2019-05-10T07:14:45.583Z,2.60
2019-05-10T07:15:42.051Z,2.20
2019-05-10T07:16:39.788Z,2.50
2019-05-10T07:17:45.635Z,2.60
2019-05-10T07:18:39.782Z,2.60
2019-05-10T07:19:41.967Z,2.50
2019-05-10T07:20:42.941Z,2.30
2019-05-10T07:21:44.931Z,2.40
2019-05-10T07:22:39.771Z,2.00
2019-05-10T07:23:45.180Z,2.00
2019-05-10T07:24:39.770Z,2.40
2019-05-10T07:25:43.839Z,2.20
2019-05-10T07:26:39.760Z,2.10
2019-05-10T07:27:39.759Z,2.10
2019-05-10T07:28:39.755Z,2.10
2019-05-10T07:29:43.276Z,1.90
2019-05-10T07:30:41.425Z,2.20
2019-05-10T07:31:39.749Z,1.90
2019-05-10T07:32:39.746Z,1.80
2019-05-10T07:33:40.270Z,1.90
2019-05-10T07:34:39.744Z,2.10
2019-05-10T07:35:39.826Z,1.90
2019-05-10T07:36:39.739Z,2.00
2019-05-10T07:37:39.734Z,1.40
2019-05-10T07:38:39.733Z,1.80
2019-05-10T07:39:39.734Z,1.90
2019-05-10T07:40:39.727Z,1.60
2019-05-10T07:41:39.733Z,1.80
2019-05-10T07:42:44.978Z,1.60
2019-05-10T07:43:39.722Z,1.80
2019-05-10T07:44:41.583Z,1.40
2019-05-10T07:45:39.735Z,1.70
2019-05-10T07:46:40.042Z,1.80
2019-05-10T07:47:39.713Z,1.80
2019-05-10T07:48:41.345Z,1.50
2019-05-10T07:49:39.708Z,1.30
2019-05-10T07:50:42.611Z,1.50
2019-05-10T07:51:39.704Z,1.60
2019-05-10T07:52:43.455Z,1.60
2019-05-10T07:53:39.702Z,1.70
2019-05-10T07:54:45.024Z,1.90
2019-05-10T07:55:39.695Z,1.80
2019-05-10T07:56:45.879Z,1.40
2019-05-10T07:57:39.688Z,1.60
2019-05-10T07:58:43.153Z,1.50
2019-05-10T07:59:49.890Z,1.70
2019-05-10T08:00:44.269Z,2.00
2019-05-10T08:01:39.679Z,1.50
2019-05-10T08:02:44.125Z,1.80
2019-05-10T08:03:44.226Z,2.10
2019-05-10T08:04:39.671Z,1.90
2019-05-10T08:05:39.666Z,2.20
2019-05-10T08:06:43.808Z,1.70
2019-05-10T08:07:39.662Z,1.40
2019-05-10T08:08:39.659Z,1.70
2019-05-10T08:09:44.851Z,2.10
2019-05-10T08:10:39.659Z,1.70
2019-05-10T08:11:39.649Z,2.00
2019-05-10T08:12:44.002Z,1.80
2019-05-10T08:13:39.644Z,1.70
2019-05-10T08:14:44.335Z,1.90
2019-05-10T08:15:39.635Z,1.80
2019-05-10T08:16:39.632Z,1.50
2019-05-10T08:17:41.031Z,1.90
2019-05-10T08:18:42.156Z,2.00
2019-05-10T08:19:39.623Z,1.80
2019-05-10T08:20:49.370Z,1.70
2019-05-10T08:21:41.837Z,1.50
2019-05-10T08:22:42.303Z,1.40
2019-05-10T08:23:41.000Z,1.70
2019-05-10T08:24:44.566Z,1.40
2019-05-10T08:25:44.328Z,1.50
2019-05-10T08:26:39.601Z,1.60
2019-05-10T08:27:44.045Z,1.40
2019-05-10T08:28:42.241Z,1.90
2019-05-10T08:29:39.592Z,1.50
2019-05-10T08:30:42.510Z,2.10
2019-05-10T08:31:41.014Z,1.50
2019-05-10T08:32:39.582Z,1.60
2019-05-10T08:33:46.354Z,1.50
2019-05-10T08:34:41.973Z,1.50
2019-05-10T08:35:43.409Z,1.80
2019-05-10T08:36:43.443Z,1.80
2019-05-10T08:37:39.565Z,1.70
2019-05-10T08:38:44.515Z,1.50
2019-05-10T08:39:45.144Z,1.40
2019-05-10T08:40:39.561Z,1.80
2019-05-10T08:41:39.552Z,1.50
2019-05-10T08:42:45.409Z,1.70
2019-05-10T08:43:40.804Z,1.50
2019-05-10T08:44:39.545Z,1.80
2019-05-10T08:45:45.012Z,1.70
2019-05-10T08:46:41.430Z,1.60
2019-05-10T08:47:39.533Z,2.20
2019-05-10T08:48:46.130Z,1.70
2019-05-10T08:49:53.839Z,1.80
2019-05-10T08:50:49.459Z,1.90
2019-05-10T08:51:43.788Z,1.90
2019-05-10T08:52:42.098Z,2.00
2019-05-10T08:53:41.855Z,1.70
2019-05-10T08:54:42.129Z,1.90
2019-05-10T08:55:39.514Z,1.90
2019-05-10T08:56:39.545Z,1.70
2019-05-10T08:57:44.540Z,1.90
2019-05-10T08:58:41.966Z,1.80
2019-05-10T08:59:39.501Z,2.30
2019-05-10T09:00:50.592Z,2.10
2019-05-10T09:01:46.504Z,1.90
2019-05-10T09:02:39.493Z,1.70
2019-05-10T09:03:41.754Z,1.80
2019-05-10T09:04:42.754Z,1.90
2019-05-10T09:05:40.023Z,1.90
2019-05-10T09:06:41.884Z,1.90
2019-05-10T09:07:39.483Z,2.20
2019-05-10T09:08:39.480Z,1.60
2019-05-10T09:09:45.712Z,1.90
2019-05-10T09:10:39.477Z,1.90
2019-05-10T09:11:44.009Z,1.90
2019-05-10T09:12:44.195Z,2.00
2019-05-10T09:13:42.546Z,2.30
2019-05-10T09:14:39.473Z,2.00
2019-05-10T09:15:43.230Z,2.10
2019-05-10T09:16:44.092Z,1.70
2019-05-10T09:17:39.465Z,1.80
2019-05-10T09:18:46.206Z,1.80
2019-05-10T09:19:43.421Z,2.00
2019-05-10T09:20:41.904Z,1.90
2019-05-10T09:21:41.319Z,1.90
2019-05-10T09:22:39.466Z,1.70
2019-05-10T09:23:39.461Z,1.60
2019-05-10T09:24:43.111Z,1.40
2019-05-10T09:25:39.457Z,1.80
2019-05-10T09:26:41.695Z,1.80
2019-05-10T09:27:39.453Z,1.80
2019-05-10T09:28:39.453Z,1.70
2019-05-10T09:29:39.451Z,2.00
2019-05-10T09:30:55.776Z,2.00
2019-05-10T09:31:44.216Z,1.60
2019-05-10T09:32:40.003Z,2.30
2019-05-10T09:33:41.022Z,1.90
2019-05-10T09:34:39.447Z,1.70
2019-05-10T09:35:46.823Z,1.90
2019-05-10T09:36:42.699Z,1.90
2019-05-10T09:37:41.879Z,2.10
2019-05-10T09:38:42.957Z,2.00
2019-05-10T09:39:39.444Z,1.90
2019-05-10T09:40:42.562Z,2.20
2019-05-10T09:41:39.442Z,2.10
2019-05-10T09:42:42.686Z,2.00
2019-05-10T09:43:40.441Z,1.90
2019-05-10T09:44:39.441Z,1.80
2019-05-10T09:45:39.438Z,1.80
2019-05-10T09:46:39.437Z,1.70
2019-05-10T09:47:39.443Z,1.70
2019-05-10T09:48:39.437Z,1.90
2019-05-10T09:49:39.435Z,1.70
2019-05-10T09:50:42.082Z,1.30
2019-05-10T09:51:39.435Z,1.80
2019-05-10T09:52:39.436Z,1.80
2019-05-10T09:53:39.436Z,2.00
2019-05-10T09:54:39.432Z,1.80
2019-05-10T09:55:39.432Z,2.20
2019-05-10T09:56:44.281Z,2.20
2019-05-10T09:57:39.436Z,2.00
2019-05-10T09:58:39.467Z,2.10
2019-05-10T09:59:39.426Z,2.60
2019-05-10T10:00:39.426Z,2.10
2019-05-10T10:01:39.425Z,2.00
2019-05-10T10:02:40.513Z,2.30
2019-05-10T10:03:43.039Z,2.10
2019-05-10T10:04:39.424Z,2.10
2019-05-10T10:05:40.326Z,1.80
2019-05-10T10:06:41.950Z,2.00
2019-05-10T10:07:39.419Z,2.20
2019-05-10T10:08:43.599Z,2.00
2019-05-10T10:09:44.479Z,2.30
2019-05-10T10:10:39.416Z,2.50
2019-05-10T10:11:39.415Z,2.30
2019-05-10T10:12:39.413Z,2.30
2019-05-10T10:13:43.459Z,1.80
2019-05-10T10:14:43.167Z,2.10
2019-05-10T10:15:39.411Z,1.60
2019-05-10T10:16:39.409Z,1.90
2019-05-10T10:17:42.335Z,1.90
2019-05-10T10:18:39.409Z,1.80
2019-05-10T10:19:40.668Z,1.80
2019-05-10T10:20:43.438Z,1.80
2019-05-10T10:21:39.402Z,1.90
2019-05-10T10:22:43.537Z,1.60
2019-05-10T10:23:39.427Z,1.80
2019-05-10T10:24:41.148Z,1.50
2019-05-10T10:25:40.452Z,1.90
2019-05-10T10:26:39.398Z,1.70
2019-05-10T10:27:39.623Z,1.70
2019-05-10T10:28:39.821Z,2.00
2019-05-10T10:29:39.397Z,1.50
2019-05-10T10:30:39.394Z,1.90
2019-05-10T10:31:50.902Z,1.80
2019-05-10T10:32:39.402Z,2.40
2019-05-10T10:33:42.621Z,1.90
2019-05-10T10:34:42.934Z,1.80
2019-05-10T10:35:39.412Z,1.90
2019-05-10T10:36:42.781Z,2.00
2019-05-10T10:37:39.384Z,1.70
2019-05-10T10:38:45.186Z,1.40
2019-05-10T10:39:39.384Z,1.70
2019-05-10T10:40:44.776Z,2.00
2019-05-10T10:41:39.380Z,1.80
2019-05-10T10:42:39.379Z,2.20
2019-05-10T10:43:39.379Z,1.60
2019-05-10T10:44:39.379Z,2.20
2019-05-10T10:45:39.377Z,1.80
2019-05-10T10:46:39.376Z,1.80
2019-05-10T10:47:39.376Z,1.90
2019-05-10T10:48:43.669Z,1.70
2019-05-10T10:49:39.374Z,1.90
2019-05-10T10:50:44.160Z,1.80
2019-05-10T10:51:39.373Z,1.50
2019-05-10T10:52:39.376Z,1.60
2019-05-10T10:53:39.372Z,1.60
2019-05-10T10:54:39.842Z,1.80
2019-05-10T10:55:40.276Z,1.50
2019-05-10T10:56:39.370Z,1.60
2019-05-10T10:57:39.369Z,2.00
2019-05-10T10:58:39.369Z,1.50
2019-05-10T10:59:39.374Z,1.70
2019-05-10T11:00:39.460Z,1.30
2019-05-10T11:01:50.049Z,1.50
2019-05-10T11:02:41.462Z,1.70
2019-05-10T11:03:39.367Z,1.50
2019-05-10T11:04:40.711Z,1.10
2019-05-10T11:05:39.366Z,1.30
2019-05-10T11:06:39.364Z,1.50
2019-05-10T11:07:44.341Z,1.30
2019-05-10T11:08:41.140Z,1.50
2019-05-10T11:09:40.980Z,1.30
2019-05-10T11:10:40.494Z,1.40
2019-05-10T11:11:43.890Z,1.20
2019-05-10T11:12:41.242Z,1.30
2019-05-10T11:13:44.951Z,1.00
2019-05-10T11:14:41.028Z,1.40
2019-05-10T11:15:41.798Z,1.10
2019-05-10T11:16:41.101Z,1.20
2019-05-10T11:17:40.798Z,1.10
2019-05-10T11:18:41.674Z,1.30
2019-05-10T11:19:41.602Z,1.40
2019-05-10T11:20:42.005Z,1.50
2019-05-10T11:21:41.334Z,1.30
2019-05-10T11:22:41.926Z,1.30
2019-05-10T11:23:41.830Z,1.30
2019-05-10T11:24:39.353Z,1.20
2019-05-10T11:25:42.666Z,1.40
2019-05-10T11:26:40.961Z,1.40
2019-05-10T11:27:41.415Z,1.20
2019-05-10T11:28:43.898Z,1.40
2019-05-10T11:29:41.664Z,1.40
2019-05-10T11:30:39.345Z,1.20
2019-05-10T11:31:41.390Z,1.10
2019-05-10T11:32:41.655Z,1.30
2019-05-10T11:33:41.581Z,1.40
2019-05-10T11:34:39.340Z,1.30
2019-05-10T11:35:41.543Z,1.40
2019-05-10T11:36:40.415Z,1.10
2019-05-10T11:37:42.137Z,1.20
2019-05-10T11:38:41.739Z,1.30
2019-05-10T11:39:45.287Z,1.00
2019-05-10T11:40:41.705Z,1.20
2019-05-10T11:41:39.334Z,1.20
2019-05-10T11:42:43.796Z,1.40
2019-05-10T11:43:41.708Z,1.60
2019-05-10T11:44:42.772Z,1.40
2019-05-10T11:45:41.990Z,1.30
2019-05-10T11:46:41.488Z,1.60
2019-05-10T11:47:40.934Z,1.40
2019-05-10T11:48:41.898Z,1.40
2019-05-10T11:49:40.688Z,1.40
2019-05-10T11:50:41.118Z,1.30
2019-05-10T11:51:41.365Z,1.30
2019-05-10T11:52:40.747Z,1.50
2019-05-10T11:53:41.405Z,1.70
2019-05-10T11:54:41.561Z,1.60
2019-05-10T11:55:41.122Z,1.30
2019-05-10T11:56:41.017Z,1.90
2019-05-10T11:57:43.818Z,1.80
2019-05-10T11:58:45.997Z,1.30
2019-05-10T11:59:41.461Z,1.50
2019-05-10T12:00:41.305Z,1.30
2019-05-10T12:01:41.838Z,1.60
2019-05-10T12:03:01.039Z,1.30
2019-05-10T12:03:42.208Z,1.20
2019-05-10T12:04:43.035Z,2.10
2019-05-10T12:05:42.299Z,1.70
2019-05-10T12:06:41.283Z,1.30
2019-05-10T12:07:45.481Z,1.40
2019-05-10T12:08:41.698Z,1.30
2019-05-10T12:09:41.866Z,1.40
2019-05-10T12:10:43.090Z,1.70
2019-05-10T12:11:43.773Z,1.60
2019-05-10T12:12:54.630Z,1.80
2019-05-10T12:13:39.329Z,1.20
2019-05-10T12:14:46.194Z,1.70
2019-05-10T12:15:42.949Z,1.30
2019-05-10T12:16:42.021Z,1.70
2019-05-10T12:17:46.423Z,1.40
2019-05-10T12:18:46.498Z,1.60
2019-05-10T12:19:47.591Z,1.40
2019-05-10T12:20:54.357Z,1.40
2019-05-10T12:21:39.324Z,1.30
2019-05-10T12:22:42.061Z,1.20
2019-05-10T12:23:50.036Z,1.40
2019-05-10T12:24:53.797Z,1.50
2019-05-10T12:25:53.082Z,1.30
2019-05-10T12:27:45.148Z,1.20
2019-05-10T12:28:40.793Z,1.20
2019-05-10T12:29:39.324Z,1.40
2019-05-10T12:30:40.856Z,1.10
2019-05-10T12:31:41.353Z,1.40
2019-05-10T12:32:54.964Z,1.30
2019-05-10T12:33:42.968Z,1.20
2019-05-10T12:34:41.037Z,1.40
2019-05-10T12:35:42.650Z,1.70
2019-05-10T12:36:41.226Z,1.20
2019-05-10T12:37:39.688Z,1.20
2019-05-10T12:38:39.328Z,1.20
2019-05-10T12:39:39.330Z,1.40
2019-05-10T12:40:41.222Z,1.30
2019-05-10T12:41:47.748Z,1.10
2019-05-10T12:42:41.591Z,1.30
2019-05-10T12:43:40.897Z,1.10
2019-05-10T12:44:44.006Z,1.40
2019-05-10T12:45:41.656Z,1.70
2019-05-10T12:46:42.070Z,1.40
2019-05-10T12:47:41.448Z,1.70
2019-05-10T12:48:39.333Z,1.70
2019-05-10T12:49:40.934Z,1.50
2019-05-10T12:50:39.333Z,1.40
2019-05-10T12:51:40.899Z,1.30
2019-05-10T12:52:39.335Z,1.60
2019-05-10T12:53:44.530Z,1.40
2019-05-10T12:54:41.361Z,1.50
2019-05-10T12:55:39.332Z,1.50
2019-05-10T12:56:43.782Z,1.40
2019-05-10T12:57:42.856Z,1.50
2019-05-10T12:58:39.332Z,1.60
2019-05-10T12:59:39.332Z,1.30
2019-05-10T13:00:39.334Z,1.40
2019-05-10T13:01:39.332Z,1.60
2019-05-10T13:02:39.331Z,1.80
2019-05-10T13:03:39.333Z,1.60
2019-05-10T13:04:40.862Z,1.40
2019-05-10T13:05:51.956Z,1.40
2019-05-10T13:06:39.347Z,1.50
2019-05-10T13:07:39.330Z,1.40
2019-05-10T13:08:39.334Z,1.30
2019-05-10T13:09:40.804Z,1.40
2019-05-10T13:10:43.567Z,1.20
2019-05-10T13:11:39.333Z,1.40
2019-05-10T13:12:44.148Z,1.50
2019-05-10T13:13:39.327Z,1.70
2019-05-10T13:14:40.109Z,1.70
2019-05-10T13:15:39.328Z,1.50
2019-05-10T13:16:39.327Z,1.60
2019-05-10T13:17:43.878Z,2.00
2019-05-10T13:18:50.403Z,1.90
2019-05-10T13:19:39.329Z,2.00